Deep River, Iowa
Current Conditions -  °F | °C
As of 9:15 AM on Friday 31 Oct 2014 (Local Time) from KGGI Reporting Station
Clear Clear  
Wind Chill: -7°   Ceiling: Unl
Heat Index: -1°   Visibility: 10mi
Dew Point: -7°   Wind: 13mph
Humidity: 65%   Direction: 340°NNW
Pressure: 30.44"   Gusts: 24mph
Location:  41.58°N, 92.37°W
Report Text: KGGI 311415Z AUTO 34011G21KT 10SM CLR M01/M07 A3044 RMK AO2 T10101068
Loading
Personal Weather Stations






























Interactive Weather Map
Tropical Storm Tracking
New forecast layout! Learn more

10-Day Weather Forecast

Advertisements
Track Severe Weather on mobile